sensor_id;sensor_type;location;lat;lon;timestamp;P1;durP1;ratioP1;P2;durP2;ratioP2
76863;SDS011;65834;52.364;9.754;2022-12-31T00:01:12;5.13;;;1.87;;
76863;SDS011;65834;52.364;9.754;2022-12-31T00:03:42;4.97;;;1.77;;
76863;SDS011;65834;52.364;9.754;2022-12-31T00:06:13;7.10;;;1.80;;
76863;SDS011;65834;52.364;9.754;2022-12-31T00:08:44;3.87;;;1.73;;
76863;SDS011;65834;52.364;9.754;2022-12-31T00:11:14;4.63;;;1.60;;
76863;SDS011;65834;52.364;9.754;2022-12-31T00:13:44;6.13;;;2.10;;
76863;SDS011;65834;52.364;9.754;2022-12-31T00:16:17;6.37;;;2.13;;
76863;SDS011;65834;52.364;9.754;2022-12-31T00:18:49;9.10;;;2.43;;
76863;SDS011;65834;52.364;9.754;2022-12-31T00:21:20;3.42;;;1.35;;
76863;SDS011;65834;52.364;9.754;2022-12-31T00:23:50;3.13;;;1.53;;
76863;SDS011;65834;52.364;9.754;2022-12-31T00:26:20;5.40;;;1.80;;
76863;SDS011;65834;52.364;9.754;2022-12-31T00:28:52;5.30;;;1.97;;
76863;SDS011;65834;52.364;9.754;2022-12-31T00:31:26;2.00;;;1.23;;
76863;SDS011;65834;52.364;9.754;2022-12-31T00:33:57;2.97;;;1.30;;
76863;SDS011;65834;52.364;9.754;2022-12-31T00:36:28;3.90;;;1.50;;
76863;SDS011;65834;52.364;9.754;2022-12-31T00:39:00;3.00;;;1.50;;
76863;SDS011;65834;52.364;9.754;2022-12-31T00:41:30;3.97;;;1.63;;
76863;SDS011;65834;52.364;9.754;2022-12-31T00:44:00;2.67;;;1.40;;
76863;SDS011;65834;52.364;9.754;2022-12-31T00:46:33;3.70;;;1.40;;
76863;SDS011;65834;52.364;9.754;2022-12-31T00:49:01;4.17;;;1.83;;
76863;SDS011;65834;52.364;9.754;2022-12-31T00:51:31;2.60;;;1.43;;
76863;SDS011;65834;52.364;9.754;2022-12-31T00:54:00;3.57;;;1.60;;
76863;SDS011;65834;52.364;9.754;2022-12-31T00:56:30;1.90;;;1.30;;
76863;SDS011;65834;52.364;9.754;2022-12-31T00:59:00;1.90;;;1.17;;
76863;SDS011;65834;52.364;9.754;2022-12-31T01:01:33;1.70;;;1.10;;
76863;SDS011;65834;52.364;9.754;2022-12-31T01:04:05;4.53;;;1.90;;
76863;SDS011;65834;52.364;9.754;2022-12-31T01:06:36;1.33;;;1.07;;
76863;SDS011;65834;52.364;9.754;2022-12-31T01:09:07;2.77;;;1.20;;
76863;SDS011;65834;52.364;9.754;2022-12-31T01:11:37;3.53;;;1.50;;
76863;SDS011;65834;52.364;9.754;2022-12-31T01:14:07;1.57;;;1.03;;
76863;SDS011;65834;52.364;9.754;2022-12-31T01:16:41;1.87;;;1.30;;
76863;SDS011;65834;52.364;9.754;2022-12-31T01:19:13;3.13;;;1.47;;
76863;SDS011;65834;52.364;9.754;2022-12-31T01:21:45;4.20;;;1.30;;
76863;SDS011;65834;52.364;9.754;2022-12-31T01:24:15;2.07;;;1.20;;
76863;SDS011;65834;52.364;9.754;2022-12-31T01:26:45;3.17;;;1.23;;
76863;SDS011;65834;52.364;9.754;2022-12-31T01:29:16;1.70;;;1.17;;
76863;SDS011;65834;52.364;9.754;2022-12-31T01:31:48;1.30;;;1.10;;
76863;SDS011;65834;52.364;9.754;2022-12-31T01:34:18;2.45;;;1.23;;
76863;SDS011;65834;52.364;9.754;2022-12-31T01:36:47;2.10;;;1.10;;
76863;SDS011;65834;52.364;9.754;2022-12-31T01:39:16;2.30;;;1.20;;
76863;SDS011;65834;52.364;9.754;2022-12-31T01:41:46;1.73;;;1.27;;
76863;SDS011;65834;52.364;9.754;2022-12-31T01:47:20;2.10;;;1.20;;
76863;SDS011;65834;52.364;9.754;2022-12-31T01:50:00;1.80;;;1.17;;
76863;SDS011;65834;52.364;9.754;2022-12-31T01:52:34;2.07;;;1.10;;
76863;SDS011;65834;52.364;9.754;2022-12-31T01:55:07;2.10;;;1.10;;
76863;SDS011;65834;52.364;9.754;2022-12-31T01:57:42;1.83;;;1.13;;
76863;SDS011;65834;52.364;9.754;2022-12-31T02:00:15;1.50;;;1.10;;
76863;SDS011;65834;52.364;9.754;2022-12-31T02:02:47;2.90;;;1.30;;
76863;SDS011;65834;52.364;9.754;2022-12-31T02:05:21;1.88;;;1.25;;
76863;SDS011;65834;52.364;9.754;2022-12-31T02:07:54;1.40;;;1.17;;
76863;SDS011;65834;52.364;9.754;2022-12-31T02:10:25;1.87;;;1.00;;
76863;SDS011;65834;52.364;9.754;2022-12-31T02:12:54;1.70;;;0.93;;
76863;SDS011;65834;52.364;9.754;2022-12-31T02:15:26;1.83;;;1.00;;
76863;SDS011;65834;52.364;9.754;2022-12-31T02:18:06;0.90;;;0.80;;
76863;SDS011;65834;52.364;9.754;2022-12-31T02:20:45;2.20;;;1.00;;
76863;SDS011;65834;52.364;9.754;2022-12-31T02:23:47;2.37;;;1.10;;
76863;SDS011;65834;52.364;9.754;2022-12-31T02:26:48;2.53;;;0.90;;
76863;SDS011;65834;52.364;9.754;2022-12-31T02:29:37;1.20;;;0.90;;
76863;SDS011;65834;52.364;9.754;2022-12-31T02:32:34;1.33;;;1.00;;
76863;SDS011;65834;52.364;9.754;2022-12-31T02:35:11;2.53;;;0.90;;
76863;SDS011;65834;52.364;9.754;2022-12-31T02:37:46;1.30;;;0.80;;
76863;SDS011;65834;52.364;9.754;2022-12-31T02:40:19;1.40;;;0.80;;
76863;SDS011;65834;52.364;9.754;2022-12-31T02:42:50;1.03;;;0.87;;
76863;SDS011;65834;52.364;9.754;2022-12-31T02:45:22;0.70;;;0.70;;
76863;SDS011;65834;52.364;9.754;2022-12-31T02:48:04;0.87;;;0.60;;
76863;SDS011;65834;52.364;9.754;2022-12-31T02:50:54;0.60;;;0.60;;
76863;SDS011;65834;52.364;9.754;2022-12-31T02:53:47;0.95;;;0.60;;
76863;SDS011;65834;52.364;9.754;2022-12-31T02:56:25;1.07;;;0.70;;
76863;SDS011;65834;52.364;9.754;2022-12-31T02:59:00;1.90;;;0.87;;
76863;SDS011;65834;52.364;9.754;2022-12-31T03:01:49;1.23;;;0.60;;
76863;SDS011;65834;52.364;9.754;2022-12-31T03:04:39;2.80;;;1.00;;
76863;SDS011;65834;52.364;9.754;2022-12-31T03:07:11;1.80;;;0.80;;
76863;SDS011;65834;52.364;9.754;2022-12-31T03:09:46;1.90;;;0.80;;
76863;SDS011;65834;52.364;9.754;2022-12-31T03:12:15;1.37;;;0.90;;
76863;SDS011;65834;52.364;9.754;2022-12-31T03:14:59;2.50;;;0.97;;
76863;SDS011;65834;52.364;9.754;2022-12-31T03:17:32;1.53;;;0.90;;
76863;SDS011;65834;52.364;9.754;2022-12-31T03:20:04;2.17;;;0.90;;
76863;SDS011;65834;52.364;9.754;2022-12-31T03:22:47;2.30;;;0.83;;
76863;SDS011;65834;52.364;9.754;2022-12-31T03:25:17;3.30;;;0.90;;
76863;SDS011;65834;52.364;9.754;2022-12-31T03:28:00;1.98;;;0.85;;
76863;SDS011;65834;52.364;9.754;2022-12-31T03:30:31;1.55;;;0.90;;
76863;SDS011;65834;52.364;9.754;2022-12-31T03:33:02;1.17;;;0.90;;
76863;SDS011;65834;52.364;9.754;2022-12-31T03:35:36;3.43;;;1.10;;
76863;SDS011;65834;52.364;9.754;2022-12-31T03:38:06;1.33;;;0.80;;
76863;SDS011;65834;52.364;9.754;2022-12-31T03:40:37;1.37;;;0.90;;
76863;SDS011;65834;52.364;9.754;2022-12-31T03:43:08;3.50;;;1.10;;
76863;SDS011;65834;52.364;9.754;2022-12-31T03:45:37;3.23;;;1.10;;
76863;SDS011;65834;52.364;9.754;2022-12-31T03:48:07;3.70;;;0.90;;
76863;SDS011;65834;52.364;9.754;2022-12-31T03:50:40;2.93;;;1.23;;
76863;SDS011;65834;52.364;9.754;2022-12-31T03:53:09;3.47;;;0.98;;
76863;SDS011;65834;52.364;9.754;2022-12-31T03:55:39;2.03;;;0.80;;
76863;SDS011;65834;52.364;9.754;2022-12-31T03:58:08;1.83;;;0.93;;
76863;SDS011;65834;52.364;9.754;2022-12-31T04:00:38;2.40;;;1.00;;
76863;SDS011;65834;52.364;9.754;2022-12-31T04:03:07;4.20;;;1.63;;
76863;SDS011;65834;52.364;9.754;2022-12-31T04:05:39;1.13;;;1.00;;
76863;SDS011;65834;52.364;9.754;2022-12-31T04:08:09;1.50;;;0.80;;
76863;SDS011;65834;52.364;9.754;2022-12-31T04:10:38;3.17;;;0.90;;
76863;SDS011;65834;52.364;9.754;2022-12-31T04:13:08;1.27;;;1.10;;
76863;SDS011;65834;52.364;9.754;2022-12-31T04:15:37;4.57;;;1.30;;
76863;SDS011;65834;52.364;9.754;2022-12-31T04:18:07;3.47;;;1.37;;
76863;SDS011;65834;52.364;9.754;2022-12-31T04:20:36;2.93;;;1.50;;
76863;SDS011;65834;52.364;9.754;2022-12-31T04:23:08;3.20;;;1.53;;
76863;SDS011;65834;52.364;9.754;2022-12-31T04:25:37;4.63;;;1.80;;
76863;SDS011;65834;52.364;9.754;2022-12-31T04:28:09;6.03;;;1.90;;
76863;SDS011;65834;52.364;9.754;2022-12-31T04:30:39;3.13;;;1.50;;
76863;SDS011;65834;52.364;9.754;2022-12-31T04:33:08;5.47;;;1.97;;
76863;SDS011;65834;52.364;9.754;2022-12-31T04:35:37;3.20;;;1.53;;
76863;SDS011;65834;52.364;9.754;2022-12-31T04:38:09;4.60;;;1.80;;
76863;SDS011;65834;52.364;9.754;2022-12-31T04:40:39;3.47;;;1.50;;
76863;SDS011;65834;52.364;9.754;2022-12-31T04:43:29;2.97;;;1.50;;
76863;SDS011;65834;52.364;9.754;2022-12-31T04:45:59;1.73;;;1.33;;
76863;SDS011;65834;52.364;9.754;2022-12-31T04:48:29;1.90;;;1.37;;
76863;SDS011;65834;52.364;9.754;2022-12-31T04:50:59;2.43;;;1.37;;
76863;SDS011;65834;52.364;9.754;2022-12-31T04:53:31;3.17;;;1.47;;
76863;SDS011;65834;52.364;9.754;2022-12-31T04:56:00;1.90;;;1.08;;
76863;SDS011;65834;52.364;9.754;2022-12-31T04:58:30;1.73;;;1.20;;
76863;SDS011;65834;52.364;9.754;2022-12-31T05:00:59;2.60;;;1.00;;
76863;SDS011;65834;52.364;9.754;2022-12-31T05:03:29;1.10;;;0.90;;
76863;SDS011;65834;52.364;9.754;2022-12-31T05:06:00;0.80;;;0.55;;
76863;SDS011;65834;52.364;9.754;2022-12-31T05:08:32;0.97;;;0.60;;
76863;SDS011;65834;52.364;9.754;2022-12-31T05:11:02;3.30;;;0.75;;
76863;SDS011;65834;52.364;9.754;2022-12-31T05:13:32;1.20;;;0.73;;
76863;SDS011;65834;52.364;9.754;2022-12-31T05:16:02;0.63;;;0.50;;
76863;SDS011;65834;52.364;9.754;2022-12-31T05:18:33;0.97;;;0.60;;
76863;SDS011;65834;52.364;9.754;2022-12-31T05:21:03;1.53;;;0.70;;
76863;SDS011;65834;52.364;9.754;2022-12-31T05:23:36;0.50;;;0.50;;
76863;SDS011;65834;52.364;9.754;2022-12-31T05:26:06;1.40;;;0.52;;
76863;SDS011;65834;52.364;9.754;2022-12-31T05:28:35;0.47;;;0.43;;
76863;SDS011;65834;52.364;9.754;2022-12-31T05:31:05;2.27;;;0.50;;
76863;SDS011;65834;52.364;9.754;2022-12-31T05:33:34;2.33;;;0.40;;
76863;SDS011;65834;52.364;9.754;2022-12-31T05:36:04;0.47;;;0.43;;
76863;SDS011;65834;52.364;9.754;2022-12-31T05:38:36;0.52;;;0.32;;
76863;SDS011;65834;52.364;9.754;2022-12-31T05:41:07;0.77;;;0.50;;
76863;SDS011;65834;52.364;9.754;2022-12-31T05:43:36;0.60;;;0.33;;
76863;SDS011;65834;52.364;9.754;2022-12-31T05:46:06;0.80;;;0.43;;
76863;SDS011;65834;52.364;9.754;2022-12-31T05:48:36;1.00;;;0.33;;
76863;SDS011;65834;52.364;9.754;2022-12-31T05:51:05;2.10;;;0.63;;
76863;SDS011;65834;52.364;9.754;2022-12-31T05:53:37;0.50;;;0.47;;
76863;SDS011;65834;52.364;9.754;2022-12-31T05:56:07;1.55;;;0.32;;
76863;SDS011;65834;52.364;9.754;2022-12-31T05:58:36;2.03;;;0.33;;
76863;SDS011;65834;52.364;9.754;2022-12-31T06:01:05;1.43;;;0.40;;
76863;SDS011;65834;52.364;9.754;2022-12-31T06:03:35;3.03;;;0.57;;
76863;SDS011;65834;52.364;9.754;2022-12-31T06:06:05;1.60;;;0.60;;
76863;SDS011;65834;52.364;9.754;2022-12-31T06:08:34;0.63;;;0.30;;
76863;SDS011;65834;52.364;9.754;2022-12-31T06:11:06;0.20;;;0.20;;
76863;SDS011;65834;52.364;9.754;2022-12-31T06:13:36;0.70;;;0.40;;
76863;SDS011;65834;52.364;9.754;2022-12-31T06:16:05;1.73;;;0.90;;
76863;SDS011;65834;52.364;9.754;2022-12-31T06:18:36;3.87;;;1.30;;
76863;SDS011;65834;52.364;9.754;2022-12-31T06:21:05;2.03;;;0.60;;
76863;SDS011;65834;52.364;9.754;2022-12-31T06:23:38;1.25;;;0.55;;
76863;SDS011;65834;52.364;9.754;2022-12-31T06:26:08;0.83;;;0.40;;
76863;SDS011;65834;52.364;9.754;2022-12-31T06:28:37;2.30;;;0.80;;
76863;SDS011;65834;52.364;9.754;2022-12-31T06:31:07;0.40;;;0.40;;
76863;SDS011;65834;52.364;9.754;2022-12-31T06:33:40;1.27;;;0.57;;
76863;SDS011;65834;52.364;9.754;2022-12-31T06:36:13;0.30;;;0.30;;
76863;SDS011;65834;52.364;9.754;2022-12-31T06:38:47;2.60;;;0.47;;
76863;SDS011;65834;52.364;9.754;2022-12-31T06:43:46;1.23;;;0.57;;
76863;SDS011;65834;52.364;9.754;2022-12-31T06:46:16;2.73;;;0.73;;
76863;SDS011;65834;52.364;9.754;2022-12-31T06:48:46;1.33;;;0.63;;
76863;SDS011;65834;52.364;9.754;2022-12-31T06:51:17;0.97;;;0.83;;
76863;SDS011;65834;52.364;9.754;2022-12-31T06:53:50;2.95;;;0.75;;
76863;SDS011;65834;52.364;9.754;2022-12-31T06:56:21;3.15;;;1.00;;
76863;SDS011;65834;52.364;9.754;2022-12-31T06:58:59;1.60;;;0.93;;
76863;SDS011;65834;52.364;9.754;2022-12-31T07:01:36;2.40;;;0.73;;
76863;SDS011;65834;52.364;9.754;2022-12-31T07:07:25;3.17;;;1.10;;
76863;SDS011;65834;52.364;9.754;2022-12-31T07:10:06;2.67;;;1.30;;
76863;SDS011;65834;52.364;9.754;2022-12-31T07:12:48;2.87;;;1.30;;
76863;SDS011;65834;52.364;9.754;2022-12-31T07:15:31;2.35;;;1.38;;
76863;SDS011;65834;52.364;9.754;2022-12-31T07:18:14;1.85;;;1.25;;
76863;SDS011;65834;52.364;9.754;2022-12-31T07:20:52;4.00;;;1.83;;
76863;SDS011;65834;52.364;9.754;2022-12-31T07:23:22;5.47;;;1.90;;
76863;SDS011;65834;52.364;9.754;2022-12-31T07:25:57;3.27;;;1.53;;
76863;SDS011;65834;52.364;9.754;2022-12-31T07:28:38;3.50;;;1.50;;
76863;SDS011;65834;52.364;9.754;2022-12-31T07:31:19;4.33;;;1.63;;
76863;SDS011;65834;52.364;9.754;2022-12-31T07:33:59;3.33;;;1.30;;
76863;SDS011;65834;52.364;9.754;2022-12-31T07:36:39;4.10;;;1.33;;
76863;SDS011;65834;52.364;9.754;2022-12-31T07:39:24;6.63;;;2.23;;
76863;SDS011;65834;52.364;9.754;2022-12-31T07:42:03;3.93;;;1.40;;
76863;SDS011;65834;52.364;9.754;2022-12-31T07:44:46;8.73;;;1.80;;
76863;SDS011;65834;52.364;9.754;2022-12-31T07:47:27;5.53;;;1.93;;
76863;SDS011;65834;52.364;9.754;2022-12-31T07:49:57;3.33;;;1.20;;
76863;SDS011;65834;52.364;9.754;2022-12-31T07:52:27;4.20;;;1.50;;
76863;SDS011;65834;52.364;9.754;2022-12-31T07:54:57;5.97;;;1.90;;
76863;SDS011;65834;52.364;9.754;2022-12-31T07:57:30;4.53;;;1.37;;
76863;SDS011;65834;52.364;9.754;2022-12-31T08:00:06;3.00;;;1.00;;
76863;SDS011;65834;52.364;9.754;2022-12-31T08:02:52;2.37;;;0.90;;
76863;SDS011;65834;52.364;9.754;2022-12-31T08:05:30;1.53;;;0.70;;
76863;SDS011;65834;52.364;9.754;2022-12-31T08:08:10;0.83;;;0.60;;
76863;SDS011;65834;52.364;9.754;2022-12-31T08:10:56;0.73;;;0.70;;
76863;SDS011;65834;52.364;9.754;2022-12-31T08:13:37;1.40;;;0.70;;
76863;SDS011;65834;52.364;9.754;2022-12-31T08:16:08;2.27;;;0.77;;
76863;SDS011;65834;52.364;9.754;2022-12-31T08:18:40;2.40;;;0.90;;
76863;SDS011;65834;52.364;9.754;2022-12-31T08:21:12;1.13;;;0.50;;
76863;SDS011;65834;52.364;9.754;2022-12-31T08:23:50;2.00;;;0.95;;
76863;SDS011;65834;52.364;9.754;2022-12-31T08:26:35;2.35;;;0.93;;
76863;SDS011;65834;52.364;9.754;2022-12-31T08:29:22;2.42;;;0.60;;
76863;SDS011;65834;52.364;9.754;2022-12-31T08:32:03;1.50;;;0.73;;
76863;SDS011;65834;52.364;9.754;2022-12-31T08:34:40;1.60;;;0.70;;
76863;SDS011;65834;52.364;9.754;2022-12-31T08:37:19;1.27;;;0.70;;
76863;SDS011;65834;52.364;9.754;2022-12-31T08:40:01;2.10;;;0.67;;
76863;SDS011;65834;52.364;9.754;2022-12-31T08:42:53;1.73;;;0.80;;
76863;SDS011;65834;52.364;9.754;2022-12-31T08:45:37;1.17;;;0.70;;
76863;SDS011;65834;52.364;9.754;2022-12-31T08:48:11;3.55;;;1.30;;
76863;SDS011;65834;52.364;9.754;2022-12-31T08:50:47;2.92;;;1.00;;
76863;SDS011;65834;52.364;9.754;2022-12-31T08:53:17;2.05;;;1.02;;
76863;SDS011;65834;52.364;9.754;2022-12-31T08:55:48;3.10;;;1.03;;
76863;SDS011;65834;52.364;9.754;2022-12-31T08:58:24;2.47;;;1.10;;
76863;SDS011;65834;52.364;9.754;2022-12-31T09:01:06;2.20;;;0.90;;
76863;SDS011;65834;52.364;9.754;2022-12-31T09:03:42;0.85;;;0.60;;
76863;SDS011;65834;52.364;9.754;2022-12-31T09:06:28;2.47;;;0.90;;
76863;SDS011;65834;52.364;9.754;2022-12-31T09:09:02;0.63;;;0.63;;
76863;SDS011;65834;52.364;9.754;2022-12-31T09:11:44;1.57;;;0.63;;
76863;SDS011;65834;52.364;9.754;2022-12-31T09:14:24;3.85;;;1.00;;
76863;SDS011;65834;52.364;9.754;2022-12-31T09:17:09;3.05;;;1.00;;
76863;SDS011;65834;52.364;9.754;2022-12-31T09:19:57;1.38;;;0.88;;
76863;SDS011;65834;52.364;9.754;2022-12-31T09:22:27;1.40;;;0.90;;
76863;SDS011;65834;52.364;9.754;2022-12-31T09:24:57;2.60;;;1.30;;
76863;SDS011;65834;52.364;9.754;2022-12-31T09:27:27;2.78;;;1.15;;
76863;SDS011;65834;52.364;9.754;2022-12-31T09:30:06;4.10;;;1.40;;
76863;SDS011;65834;52.364;9.754;2022-12-31T09:32:44;3.47;;;1.50;;
76863;SDS011;65834;52.364;9.754;2022-12-31T09:35:29;1.85;;;1.30;;
76863;SDS011;65834;52.364;9.754;2022-12-31T09:38:08;3.60;;;1.23;;
76863;SDS011;65834;52.364;9.754;2022-12-31T09:43:49;2.30;;;1.15;;
76863;SDS011;65834;52.364;9.754;2022-12-31T09:46:52;3.17;;;1.00;;
76863;SDS011;65834;52.364;9.754;2022-12-31T09:52:46;1.55;;;0.98;;
76863;SDS011;65834;52.364;9.754;2022-12-31T09:55:30;3.20;;;1.20;;
76863;SDS011;65834;52.364;9.754;2022-12-31T09:58:09;4.90;;;1.30;;
76863;SDS011;65834;52.364;9.754;2022-12-31T10:00:50;2.45;;;1.00;;
76863;SDS011;65834;52.364;9.754;2022-12-31T10:03:28;4.20;;;1.60;;
76863;SDS011;65834;52.364;9.754;2022-12-31T10:06:20;2.20;;;0.80;;
76863;SDS011;65834;52.364;9.754;2022-12-31T10:09:05;1.23;;;0.80;;
76863;SDS011;65834;52.364;9.754;2022-12-31T10:11:58;6.53;;;1.30;;
76863;SDS011;65834;52.364;9.754;2022-12-31T10:14:41;2.03;;;0.93;;
76863;SDS011;65834;52.364;9.754;2022-12-31T10:17:28;2.13;;;0.68;;
76863;SDS011;65834;52.364;9.754;2022-12-31T10:23:18;2.33;;;1.10;;
76863;SDS011;65834;52.364;9.754;2022-12-31T10:26:01;4.13;;;0.90;;
76863;SDS011;65834;52.364;9.754;2022-12-31T10:28:41;3.60;;;0.90;;
76863;SDS011;65834;52.364;9.754;2022-12-31T10:31:37;1.33;;;0.63;;
76863;SDS011;65834;52.364;9.754;2022-12-31T10:34:15;2.35;;;0.95;;
76863;SDS011;65834;52.364;9.754;2022-12-31T10:36:51;2.73;;;1.20;;
76863;SDS011;65834;52.364;9.754;2022-12-31T10:42:15;4.20;;;1.08;;
76863;SDS011;65834;52.364;9.754;2022-12-31T10:45:17;3.22;;;1.25;;
76863;SDS011;65834;52.364;9.754;2022-12-31T10:54:35;4.65;;;1.20;;
76863;SDS011;65834;52.364;9.754;2022-12-31T10:57:32;1.92;;;0.90;;
76863;SDS011;65834;52.364;9.754;2022-12-31T11:00:25;2.50;;;1.00;;
76863;SDS011;65834;52.364;9.754;2022-12-31T11:03:07;4.78;;;1.23;;
76863;SDS011;65834;52.364;9.754;2022-12-31T11:06:10;1.65;;;0.73;;
76863;SDS011;65834;52.364;9.754;2022-12-31T11:12:01;2.42;;;0.70;;
76863;SDS011;65834;52.364;9.754;2022-12-31T11:14:46;1.90;;;0.95;;
76863;SDS011;65834;52.364;9.754;2022-12-31T11:17:25;1.88;;;0.80;;
76863;SDS011;65834;52.364;9.754;2022-12-31T11:23:10;0.88;;;0.50;;
76863;SDS011;65834;52.364;9.754;2022-12-31T11:25:57;3.92;;;0.95;;
76863;SDS011;65834;52.364;9.754;2022-12-31T11:28:36;2.35;;;0.85;;
76863;SDS011;65834;52.364;9.754;2022-12-31T11:31:22;2.97;;;0.93;;
76863;SDS011;65834;52.364;9.754;2022-12-31T11:34:13;2.63;;;1.00;;
76863;SDS011;65834;52.364;9.754;2022-12-31T11:37:00;6.63;;;1.48;;
76863;SDS011;65834;52.364;9.754;2022-12-31T11:39:44;5.50;;;1.30;;
76863;SDS011;65834;52.364;9.754;2022-12-31T11:42:22;3.78;;;1.23;;
76863;SDS011;65834;52.364;9.754;2022-12-31T11:45:03;1.88;;;1.60;;
76863;SDS011;65834;52.364;9.754;2022-12-31T11:47:46;5.85;;;1.80;;
76863;SDS011;65834;52.364;9.754;2022-12-31T11:50:44;4.60;;;1.48;;
76863;SDS011;65834;52.364;9.754;2022-12-31T11:56:29;4.65;;;1.42;;
76863;SDS011;65834;52.364;9.754;2022-12-31T11:59:05;2.03;;;1.40;;
76863;SDS011;65834;52.364;9.754;2022-12-31T12:01:47;3.63;;;1.50;;
76863;SDS011;65834;52.364;9.754;2022-12-31T12:04:26;6.07;;;1.50;;
76863;SDS011;65834;52.364;9.754;2022-12-31T12:06:55;5.53;;;1.40;;
76863;SDS011;65834;52.364;9.754;2022-12-31T12:09:25;4.43;;;1.42;;
76863;SDS011;65834;52.364;9.754;2022-12-31T12:11:57;2.45;;;1.23;;
76863;SDS011;65834;52.364;9.754;2022-12-31T12:14:30;6.00;;;1.40;;
76863;SDS011;65834;52.364;9.754;2022-12-31T12:17:01;4.47;;;1.40;;
76863;SDS011;65834;52.364;9.754;2022-12-31T12:19:40;4.68;;;1.35;;
76863;SDS011;65834;52.364;9.754;2022-12-31T12:22:11;3.08;;;1.10;;
76863;SDS011;65834;52.364;9.754;2022-12-31T12:24:50;3.55;;;1.13;;
76863;SDS011;65834;52.364;9.754;2022-12-31T12:27:23;3.28;;;1.40;;
76863;SDS011;65834;52.364;9.754;2022-12-31T12:29:55;4.13;;;1.27;;
76863;SDS011;65834;52.364;9.754;2022-12-31T12:32:25;5.07;;;1.25;;
76863;SDS011;65834;52.364;9.754;2022-12-31T12:34:57;3.75;;;1.38;;
76863;SDS011;65834;52.364;9.754;2022-12-31T12:37:28;4.57;;;1.35;;
76863;SDS011;65834;52.364;9.754;2022-12-31T12:40:01;4.35;;;1.27;;
76863;SDS011;65834;52.364;9.754;2022-12-31T12:42:34;9.80;;;1.75;;
76863;SDS011;65834;52.364;9.754;2022-12-31T12:45:05;3.85;;;1.40;;
76863;SDS011;65834;52.364;9.754;2022-12-31T12:47:42;5.95;;;1.42;;
76863;SDS011;65834;52.364;9.754;2022-12-31T12:50:17;3.80;;;1.15;;
76863;SDS011;65834;52.364;9.754;2022-12-31T12:53:01;5.60;;;1.50;;
76863;SDS011;65834;52.364;9.754;2022-12-31T12:55:45;3.45;;;1.10;;
76863;SDS011;65834;52.364;9.754;2022-12-31T12:58:27;5.25;;;1.33;;
76863;SDS011;65834;52.364;9.754;2022-12-31T13:01:12;3.50;;;1.00;;
76863;SDS011;65834;52.364;9.754;2022-12-31T13:03:59;6.40;;;1.20;;
76863;SDS011;65834;52.364;9.754;2022-12-31T13:07:15;3.72;;;1.08;;
76863;SDS011;65834;52.364;9.754;2022-12-31T13:12:56;3.78;;;1.27;;
76863;SDS011;65834;52.364;9.754;2022-12-31T13:15:54;3.20;;;1.02;;
76863;SDS011;65834;52.364;9.754;2022-12-31T13:18:37;4.35;;;1.10;;
76863;SDS011;65834;52.364;9.754;2022-12-31T13:21:25;3.95;;;1.15;;
76863;SDS011;65834;52.364;9.754;2022-12-31T13:24:04;2.95;;;0.80;;
76863;SDS011;65834;52.364;9.754;2022-12-31T13:26:43;2.70;;;1.15;;
76863;SDS011;65834;52.364;9.754;2022-12-31T13:29:18;3.67;;;1.08;;
76863;SDS011;65834;52.364;9.754;2022-12-31T13:31:51;5.25;;;1.05;;
76863;SDS011;65834;52.364;9.754;2022-12-31T13:34:23;4.30;;;1.20;;
76863;SDS011;65834;52.364;9.754;2022-12-31T13:36:58;4.57;;;1.05;;
76863;SDS011;65834;52.364;9.754;2022-12-31T13:39:35;3.70;;;1.15;;
76863;SDS011;65834;52.364;9.754;2022-12-31T13:42:09;5.47;;;1.10;;
76863;SDS011;65834;52.364;9.754;2022-12-31T13:44:45;4.18;;;1.27;;
76863;SDS011;65834;52.364;9.754;2022-12-31T13:47:20;5.07;;;1.25;;
76863;SDS011;65834;52.364;9.754;2022-12-31T13:50:02;4.13;;;1.20;;
76863;SDS011;65834;52.364;9.754;2022-12-31T13:52:40;4.18;;;1.30;;
76863;SDS011;65834;52.364;9.754;2022-12-31T13:55:20;5.90;;;1.27;;
76863;SDS011;65834;52.364;9.754;2022-12-31T13:57:55;2.25;;;0.98;;
76863;SDS011;65834;52.364;9.754;2022-12-31T14:00:31;3.90;;;1.00;;
76863;SDS011;65834;52.364;9.754;2022-12-31T14:03:07;4.95;;;1.02;;
76863;SDS011;65834;52.364;9.754;2022-12-31T14:05:41;7.20;;;1.42;;
76863;SDS011;65834;52.364;9.754;2022-12-31T14:08:18;7.88;;;1.60;;
76863;SDS011;65834;52.364;9.754;2022-12-31T14:10:53;3.03;;;1.10;;
76863;SDS011;65834;52.364;9.754;2022-12-31T14:13:38;4.88;;;1.60;;
76863;SDS011;65834;52.364;9.754;2022-12-31T14:16:17;7.97;;;1.80;;
76863;SDS011;65834;52.364;9.754;2022-12-31T14:18:55;7.53;;;1.85;;
76863;SDS011;65834;52.364;9.754;2022-12-31T14:21:31;3.67;;;1.00;;
76863;SDS011;65834;52.364;9.754;2022-12-31T14:24:08;3.90;;;1.50;;
76863;SDS011;65834;52.364;9.754;2022-12-31T14:26:45;4.80;;;1.60;;
76863;SDS011;65834;52.364;9.754;2022-12-31T14:29:21;6.43;;;1.48;;
76863;SDS011;65834;52.364;9.754;2022-12-31T14:32:12;3.05;;;1.17;;
76863;SDS011;65834;52.364;9.754;2022-12-31T14:35:04;3.88;;;1.10;;
76863;SDS011;65834;52.364;9.754;2022-12-31T14:37:50;3.25;;;0.90;;
76863;SDS011;65834;52.364;9.754;2022-12-31T14:40:25;4.18;;;1.10;;
76863;SDS011;65834;52.364;9.754;2022-12-31T14:43:09;5.65;;;2.08;;
76863;SDS011;65834;52.364;9.754;2022-12-31T14:45:48;2.03;;;0.88;;
76863;SDS011;65834;52.364;9.754;2022-12-31T14:48:31;6.00;;;1.25;;
76863;SDS011;65834;52.364;9.754;2022-12-31T14:51:08;7.93;;;1.33;;
76863;SDS011;65834;52.364;9.754;2022-12-31T14:53:39;4.28;;;1.30;;
76863;SDS011;65834;52.364;9.754;2022-12-31T14:56:27;3.63;;;1.20;;
76863;SDS011;65834;52.364;9.754;2022-12-31T14:59:01;7.88;;;1.70;;
76863;SDS011;65834;52.364;9.754;2022-12-31T15:01:31;6.55;;;1.50;;
76863;SDS011;65834;52.364;9.754;2022-12-31T15:04:13;6.45;;;1.33;;
76863;SDS011;65834;52.364;9.754;2022-12-31T15:06:46;3.17;;;1.10;;
76863;SDS011;65834;52.364;9.754;2022-12-31T15:09:36;4.93;;;1.40;;
76863;SDS011;65834;52.364;9.754;2022-12-31T15:12:19;2.97;;;1.10;;
76863;SDS011;65834;52.364;9.754;2022-12-31T15:18:07;4.55;;;1.35;;
76863;SDS011;65834;52.364;9.754;2022-12-31T15:21:01;9.17;;;3.83;;
76863;SDS011;65834;52.364;9.754;2022-12-31T15:23:52;4.60;;;1.77;;
76863;SDS011;65834;52.364;9.754;2022-12-31T15:26:23;7.63;;;1.88;;
76863;SDS011;65834;52.364;9.754;2022-12-31T15:28:57;6.68;;;1.70;;
76863;SDS011;65834;52.364;9.754;2022-12-31T15:31:31;5.40;;;1.70;;
76863;SDS011;65834;52.364;9.754;2022-12-31T15:34:04;5.75;;;1.48;;
76863;SDS011;65834;52.364;9.754;2022-12-31T15:36:36;7.43;;;1.55;;
76863;SDS011;65834;52.364;9.754;2022-12-31T15:39:22;3.08;;;1.35;;
76863;SDS011;65834;52.364;9.754;2022-12-31T15:45:10;3.92;;;1.40;;
76863;SDS011;65834;52.364;9.754;2022-12-31T15:47:51;6.28;;;1.52;;
76863;SDS011;65834;52.364;9.754;2022-12-31T15:50:24;4.43;;;1.40;;
76863;SDS011;65834;52.364;9.754;2022-12-31T15:52:55;2.78;;;1.25;;
76863;SDS011;65834;52.364;9.754;2022-12-31T15:58:03;2.40;;;1.27;;
76863;SDS011;65834;52.364;9.754;2022-12-31T16:00:43;4.95;;;1.40;;
76863;SDS011;65834;52.364;9.754;2022-12-31T16:03:27;5.70;;;1.60;;
76863;SDS011;65834;52.364;9.754;2022-12-31T16:05:59;3.47;;;1.30;;
76863;SDS011;65834;52.364;9.754;2022-12-31T16:08:30;5.68;;;1.70;;
76863;SDS011;65834;52.364;9.754;2022-12-31T16:11:02;7.07;;;1.60;;
76863;SDS011;65834;52.364;9.754;2022-12-31T16:13:33;4.88;;;1.50;;
76863;SDS011;65834;52.364;9.754;2022-12-31T16:16:06;6.47;;;1.63;;
76863;SDS011;65834;52.364;9.754;2022-12-31T16:18:39;7.53;;;1.63;;
76863;SDS011;65834;52.364;9.754;2022-12-31T16:21:21;5.82;;;1.50;;
76863;SDS011;65834;52.364;9.754;2022-12-31T16:23:52;6.13;;;1.50;;
76863;SDS011;65834;52.364;9.754;2022-12-31T16:26:23;5.60;;;1.60;;
76863;SDS011;65834;52.364;9.754;2022-12-31T16:28:58;5.60;;;1.77;;
76863;SDS011;65834;52.364;9.754;2022-12-31T16:31:29;4.38;;;1.40;;